sensor_id;sensor_type;location;lat;lon;timestamp;temperature;humidity
34135;DHT22;20410;55.578;12.968;2023-09-18T00:00:48;17.60;1.00
34135;DHT22;20410;55.578;12.968;2023-09-18T00:03:21;17.60;1.00
34135;DHT22;20410;55.578;12.968;2023-09-18T00:05:50;17.60;1.00
34135;DHT22;20410;55.578;12.968;2023-09-18T00:08:17;17.60;1.00
34135;DHT22;20410;55.578;12.968;2023-09-18T00:10:51;17.60;1.00
34135;DHT22;20410;55.578;12.968;2023-09-18T00:13:17;17.70;4.40
34135;DHT22;20410;55.578;12.968;2023-09-18T00:15:43;17.60;6.60
34135;DHT22;20410;55.578;12.968;2023-09-18T00:18:13;17.70;10.50
34135;DHT22;20410;55.578;12.968;2023-09-18T00:20:38;17.70;9.70
34135;DHT22;20410;55.578;12.968;2023-09-18T00:23:04;17.70;6.90
34135;DHT22;20410;55.578;12.968;2023-09-18T00:25:30;17.70;11.80
34135;DHT22;20410;55.578;12.968;2023-09-18T00:27:56;17.70;13.00
34135;DHT22;20410;55.578;12.968;2023-09-18T00:30:22;17.70;12.50
34135;DHT22;20410;55.578;12.968;2023-09-18T00:32:48;17.70;14.20
34135;DHT22;20410;55.578;12.968;2023-09-18T00:35:15;17.70;18.60
34135;DHT22;20410;55.578;12.968;2023-09-18T00:37:41;17.80;21.00
34135;DHT22;20410;55.578;12.968;2023-09-18T00:40:08;17.80;26.20
34135;DHT22;20410;55.578;12.968;2023-09-18T00:42:34;17.70;28.60
34135;DHT22;20410;55.578;12.968;2023-09-18T00:45:00;17.70;27.80
34135;DHT22;20410;55.578;12.968;2023-09-18T00:47:26;17.70;33.10
34135;DHT22;20410;55.578;12.968;2023-09-18T00:49:52;17.70;40.70
34135;DHT22;20410;55.578;12.968;2023-09-18T00:52:19;17.70;46.00
34135;DHT22;20410;55.578;12.968;2023-09-18T00:54:47;17.80;42.90
34135;DHT22;20410;55.578;12.968;2023-09-18T00:57:13;17.70;49.70
34135;DHT22;20410;55.578;12.968;2023-09-18T00:59:39;17.70;60.20
34135;DHT22;20410;55.578;12.968;2023-09-18T01:02:05;17.70;53.70
34135;DHT22;20410;55.578;12.968;2023-09-18T01:04:33;17.70;62.00
34135;DHT22;20410;55.578;12.968;2023-09-18T01:07:00;17.70;59.30
34135;DHT22;20410;55.578;12.968;2023-09-18T01:09:32;17.70;53.80
34135;DHT22;20410;55.578;12.968;2023-09-18T01:17:14;17.80;52.60
34135;DHT22;20410;55.578;12.968;2023-09-18T01:19:42;17.80;59.70
34135;DHT22;20410;55.578;12.968;2023-09-18T01:22:14;17.80;62.30
34135;DHT22;20410;55.578;12.968;2023-09-18T01:24:40;17.70;69.80
34135;DHT22;20410;55.578;12.968;2023-09-18T01:27:15;17.80;65.20
34135;DHT22;20410;55.578;12.968;2023-09-18T01:29:47;17.70;76.70
34135;DHT22;20410;55.578;12.968;2023-09-18T01:32:14;17.80;82.30
34135;DHT22;20410;55.578;12.968;2023-09-18T01:34:47;17.80;75.00
34135;DHT22;20410;55.578;12.968;2023-09-18T01:37:15;17.80;77.60
34135;DHT22;20410;55.578;12.968;2023-09-18T01:39:42;17.80;78.20
34135;DHT22;20410;55.578;12.968;2023-09-18T01:42:08;17.80;88.20
34135;DHT22;20410;55.578;12.968;2023-09-18T01:44:37;17.70;92.50
34135;DHT22;20410;55.578;12.968;2023-09-18T01:47:11;17.80;90.80
34135;DHT22;20410;55.578;12.968;2023-09-18T01:49:38;17.80;89.50
34135;DHT22;20410;55.578;12.968;2023-09-18T01:52:06;17.90;90.90
34135;DHT22;20410;55.578;12.968;2023-09-18T01:54:33;17.80;92.20
34135;DHT22;20410;55.578;12.968;2023-09-18T01:56:59;17.80;95.10
34135;DHT22;20410;55.578;12.968;2023-09-18T01:59:25;17.80;94.10
34135;DHT22;20410;55.578;12.968;2023-09-18T02:01:51;17.80;96.50
34135;DHT22;20410;55.578;12.968;2023-09-18T02:04:17;17.80;96.80
34135;DHT22;20410;55.578;12.968;2023-09-18T02:06:44;17.80;98.30
34135;DHT22;20410;55.578;12.968;2023-09-18T02:09:10;17.90;98.10
34135;DHT22;20410;55.578;12.968;2023-09-18T02:11:40;17.90;99.20
34135;DHT22;20410;55.578;12.968;2023-09-18T02:14:07;18.00;96.20
34135;DHT22;20410;55.578;12.968;2023-09-18T02:16:33;18.00;96.30
34135;DHT22;20410;55.578;12.968;2023-09-18T02:18:59;18.00;94.40
34135;DHT22;20410;55.578;12.968;2023-09-18T02:21:25;18.00;93.10
34135;DHT22;20410;55.578;12.968;2023-09-18T02:23:52;18.00;95.60
34135;DHT22;20410;55.578;12.968;2023-09-18T02:26:21;18.00;98.00
34135;DHT22;20410;55.578;12.968;2023-09-18T02:28:47;18.00;98.90
34135;DHT22;20410;55.578;12.968;2023-09-18T02:31:13;18.10;96.20
34135;DHT22;20410;55.578;12.968;2023-09-18T02:33:40;18.00;98.30
34135;DHT22;20410;55.578;12.968;2023-09-18T02:36:06;18.10;98.90
34135;DHT22;20410;55.578;12.968;2023-09-18T02:38:33;18.00;98.70
34135;DHT22;20410;55.578;12.968;2023-09-18T02:40:59;18.10;98.60
34135;DHT22;20410;55.578;12.968;2023-09-18T02:43:25;18.10;98.90
34135;DHT22;20410;55.578;12.968;2023-09-18T02:45:51;18.10;99.90
34135;DHT22;20410;55.578;12.968;2023-09-18T02:48:17;18.10;99.90
34135;DHT22;20410;55.578;12.968;2023-09-18T02:50:43;18.10;99.00
34135;DHT22;20410;55.578;12.968;2023-09-18T02:53:20;18.10;99.00
34135;DHT22;20410;55.578;12.968;2023-09-18T02:55:51;18.10;98.40
34135;DHT22;20410;55.578;12.968;2023-09-18T02:58:17;18.10;98.50
34135;DHT22;20410;55.578;12.968;2023-09-18T03:00:45;18.20;96.90
34135;DHT22;20410;55.578;12.968;2023-09-18T03:03:12;18.10;98.50
34135;DHT22;20410;55.578;12.968;2023-09-18T03:05:38;18.20;98.20
34135;DHT22;20410;55.578;12.968;2023-09-18T03:08:05;18.20;99.60
34135;DHT22;20410;55.578;12.968;2023-09-18T03:10:34;18.20;99.90
34135;DHT22;20410;55.578;12.968;2023-09-18T03:13:01;18.10;99.90
34135;DHT22;20410;55.578;12.968;2023-09-18T03:15:27;18.20;99.90
34135;DHT22;20410;55.578;12.968;2023-09-18T03:17:53;18.20;99.90
34135;DHT22;20410;55.578;12.968;2023-09-18T03:20:21;18.10;99.90
34135;DHT22;20410;55.578;12.968;2023-09-18T03:22:47;18.10;99.90
34135;DHT22;20410;55.578;12.968;2023-09-18T03:25:12;18.10;99.90
34135;DHT22;20410;55.578;12.968;2023-09-18T03:27:38;18.20;99.90
34135;DHT22;20410;55.578;12.968;2023-09-18T03:30:04;18.10;99.90
34135;DHT22;20410;55.578;12.968;2023-09-18T03:32:29;18.20;99.90
34135;DHT22;20410;55.578;12.968;2023-09-18T03:34:55;18.10;99.90
34135;DHT22;20410;55.578;12.968;2023-09-18T03:37:21;18.20;99.90
34135;DHT22;20410;55.578;12.968;2023-09-18T03:39:46;18.20;99.90
34135;DHT22;20410;55.578;12.968;2023-09-18T03:42:12;18.20;99.90
34135;DHT22;20410;55.578;12.968;2023-09-18T03:44:38;18.20;99.90
34135;DHT22;20410;55.578;12.968;2023-09-18T03:47:03;18.20;99.90
34135;DHT22;20410;55.578;12.968;2023-09-18T03:49:29;18.20;99.90
34135;DHT22;20410;55.578;12.968;2023-09-18T03:51:55;18.20;99.90
34135;DHT22;20410;55.578;12.968;2023-09-18T03:54:21;18.20;99.90
34135;DHT22;20410;55.578;12.968;2023-09-18T03:56:46;18.20;99.90
34135;DHT22;20410;55.578;12.968;2023-09-18T03:59:12;18.30;99.90
34135;DHT22;20410;55.578;12.968;2023-09-18T04:01:38;18.20;99.90
34135;DHT22;20410;55.578;12.968;2023-09-18T04:04:04;18.20;99.90
34135;DHT22;20410;55.578;12.968;2023-09-18T04:06:41;18.10;99.90
34135;DHT22;20410;55.578;12.968;2023-09-18T04:09:07;18.20;99.90
34135;DHT22;20410;55.578;12.968;2023-09-18T04:11:32;18.10;99.90
34135;DHT22;20410;55.578;12.968;2023-09-18T04:13:59;18.20;99.90
34135;DHT22;20410;55.578;12.968;2023-09-18T04:16:26;18.10;99.90
34135;DHT22;20410;55.578;12.968;2023-09-18T04:18:53;18.10;99.90
34135;DHT22;20410;55.578;12.968;2023-09-18T04:21:19;18.10;99.90
34135;DHT22;20410;55.578;12.968;2023-09-18T04:23:44;18.10;99.90
34135;DHT22;20410;55.578;12.968;2023-09-18T04:26:10;18.10;99.90
34135;DHT22;20410;55.578;12.968;2023-09-18T04:28:36;18.20;99.90
34135;DHT22;20410;55.578;12.968;2023-09-18T04:31:01;18.20;99.90
34135;DHT22;20410;55.578;12.968;2023-09-18T04:33:27;18.20;99.90
34135;DHT22;20410;55.578;12.968;2023-09-18T04:35:54;18.20;99.90
34135;DHT22;20410;55.578;12.968;2023-09-18T04:38:19;18.20;99.90
34135;DHT22;20410;55.578;12.968;2023-09-18T04:40:45;18.20;99.90
34135;DHT22;20410;55.578;12.968;2023-09-18T04:43:11;18.20;99.90
34135;DHT22;20410;55.578;12.968;2023-09-18T04:45:37;18.20;99.90
34135;DHT22;20410;55.578;12.968;2023-09-18T04:48:03;18.20;99.90
34135;DHT22;20410;55.578;12.968;2023-09-18T04:50:31;18.20;99.90
34135;DHT22;20410;55.578;12.968;2023-09-18T04:52:57;18.30;99.90
34135;DHT22;20410;55.578;12.968;2023-09-18T04:55:23;18.20;99.90
34135;DHT22;20410;55.578;12.968;2023-09-18T04:57:48;18.20;99.90
34135;DHT22;20410;55.578;12.968;2023-09-18T05:00:14;18.20;99.90
34135;DHT22;20410;55.578;12.968;2023-09-18T05:02:40;18.20;99.90
34135;DHT22;20410;55.578;12.968;2023-09-18T05:05:06;18.30;99.90
34135;DHT22;20410;55.578;12.968;2023-09-18T05:07:34;18.30;99.90
34135;DHT22;20410;55.578;12.968;2023-09-18T05:10:00;18.30;99.90
34135;DHT22;20410;55.578;12.968;2023-09-18T05:12:26;18.30;99.90
34135;DHT22;20410;55.578;12.968;2023-09-18T05:14:51;18.30;99.90
34135;DHT22;20410;55.578;12.968;2023-09-18T05:17:17;18.40;99.90
34135;DHT22;20410;55.578;12.968;2023-09-18T05:19:43;18.40;99.90
34135;DHT22;20410;55.578;12.968;2023-09-18T05:22:09;18.40;99.90
34135;DHT22;20410;55.578;12.968;2023-09-18T05:24:40;18.40;99.90
34135;DHT22;20410;55.578;12.968;2023-09-18T05:27:06;18.40;99.90
34135;DHT22;20410;55.578;12.968;2023-09-18T05:29:33;18.40;99.90
34135;DHT22;20410;55.578;12.968;2023-09-18T05:32:00;18.40;99.90
34135;DHT22;20410;55.578;12.968;2023-09-18T05:34:26;18.50;99.90
34135;DHT22;20410;55.578;12.968;2023-09-18T05:36:51;18.40;99.90
34135;DHT22;20410;55.578;12.968;2023-09-18T05:39:18;18.50;99.90
34135;DHT22;20410;55.578;12.968;2023-09-18T05:41:43;18.50;99.90
34135;DHT22;20410;55.578;12.968;2023-09-18T05:44:09;18.50;99.90
34135;DHT22;20410;55.578;12.968;2023-09-18T05:46:35;18.50;99.90
34135;DHT22;20410;55.578;12.968;2023-09-18T05:49:01;18.60;99.90
34135;DHT22;20410;55.578;12.968;2023-09-18T05:51:27;18.60;99.90
34135;DHT22;20410;55.578;12.968;2023-09-18T05:53:53;18.60;99.90
34135;DHT22;20410;55.578;12.968;2023-09-18T05:56:18;18.70;99.90
34135;DHT22;20410;55.578;12.968;2023-09-18T05:58:44;18.70;99.90
34135;DHT22;20410;55.578;12.968;2023-09-18T06:01:10;18.70;99.90
34135;DHT22;20410;55.578;12.968;2023-09-18T06:03:35;18.70;99.90
34135;DHT22;20410;55.578;12.968;2023-09-18T06:06:02;18.70;99.90
34135;DHT22;20410;55.578;12.968;2023-09-18T06:08:28;18.80;99.90
34135;DHT22;20410;55.578;12.968;2023-09-18T06:10:55;18.80;99.90
34135;DHT22;20410;55.578;12.968;2023-09-18T06:13:21;18.80;99.90
34135;DHT22;20410;55.578;12.968;2023-09-18T06:15:47;18.90;99.90
34135;DHT22;20410;55.578;12.968;2023-09-18T06:18:14;19.00;99.90
34135;DHT22;20410;55.578;12.968;2023-09-18T06:20:40;19.10;99.90
34135;DHT22;20410;55.578;12.968;2023-09-18T06:23:06;19.10;99.90
34135;DHT22;20410;55.578;12.968;2023-09-18T06:25:32;19.20;99.90
34135;DHT22;20410;55.578;12.968;2023-09-18T06:27:57;19.20;99.90
34135;DHT22;20410;55.578;12.968;2023-09-18T06:30:23;19.20;99.90
34135;DHT22;20410;55.578;12.968;2023-09-18T06:32:49;19.30;95.70
34135;DHT22;20410;55.578;12.968;2023-09-18T06:35:14;19.40;94.70
34135;DHT22;20410;55.578;12.968;2023-09-18T06:37:40;19.40;92.50
34135;DHT22;20410;55.578;12.968;2023-09-18T06:40:06;19.40;91.20
34135;DHT22;20410;55.578;12.968;2023-09-18T06:42:32;19.50;90.00
34135;DHT22;20410;55.578;12.968;2023-09-18T06:44:58;19.50;81.10
34135;DHT22;20410;55.578;12.968;2023-09-18T06:47:24;19.60;74.10
34135;DHT22;20410;55.578;12.968;2023-09-18T06:49:50;19.60;67.60
34135;DHT22;20410;55.578;12.968;2023-09-18T06:52:17;19.60;77.30
34135;DHT22;20410;55.578;12.968;2023-09-18T06:54:42;19.60;88.60
34135;DHT22;20410;55.578;12.968;2023-09-18T06:57:09;19.70;66.40
34135;DHT22;20410;55.578;12.968;2023-09-18T06:59:35;19.70;61.90
34135;DHT22;20410;55.578;12.968;2023-09-18T07:02:01;19.80;56.60
34135;DHT22;20410;55.578;12.968;2023-09-18T07:04:27;19.90;47.20
34135;DHT22;20410;55.578;12.968;2023-09-18T07:06:53;19.90;32.20
34135;DHT22;20410;55.578;12.968;2023-09-18T07:09:19;20.00;45.80
34135;DHT22;20410;55.578;12.968;2023-09-18T07:11:48;19.90;46.30
34135;DHT22;20410;55.578;12.968;2023-09-18T07:14:14;20.00;39.00
34135;DHT22;20410;55.578;12.968;2023-09-18T07:16:39;20.00;40.20
34135;DHT22;20410;55.578;12.968;2023-09-18T07:19:05;20.00;43.70
34135;DHT22;20410;55.578;12.968;2023-09-18T07:21:31;20.00;33.00
34135;DHT22;20410;55.578;12.968;2023-09-18T07:23:57;20.10;39.30
34135;DHT22;20410;55.578;12.968;2023-09-18T07:26:22;20.10;31.80
34135;DHT22;20410;55.578;12.968;2023-09-18T07:28:48;20.20;26.00
34135;DHT22;20410;55.578;12.968;2023-09-18T07:31:13;20.40;20.20
34135;DHT22;20410;55.578;12.968;2023-09-18T07:33:40;20.50;10.50
34135;DHT22;20410;55.578;12.968;2023-09-18T07:36:06;20.50;5.40
34135;DHT22;20410;55.578;12.968;2023-09-18T07:38:32;20.40;3.10
34135;DHT22;20410;55.578;12.968;2023-09-18T07:40:58;20.50;3.60
34135;DHT22;20410;55.578;12.968;2023-09-18T07:43:24;20.40;7.90
34135;DHT22;20410;55.578;12.968;2023-09-18T07:45:50;20.50;2.10
34135;DHT22;20410;55.578;12.968;2023-09-18T07:48:16;20.50;5.90
34135;DHT22;20410;55.578;12.968;2023-09-18T07:50:45;20.50;1.00
34135;DHT22;20410;55.578;12.968;2023-09-18T07:53:11;20.60;1.00
34135;DHT22;20410;55.578;12.968;2023-09-18T07:55:36;20.70;1.00
34135;DHT22;20410;55.578;12.968;2023-09-18T07:58:02;20.90;1.00
34135;DHT22;20410;55.578;12.968;2023-09-18T08:00:29;20.90;1.00
34135;DHT22;20410;55.578;12.968;2023-09-18T08:02:56;21.00;1.00
34135;DHT22;20410;55.578;12.968;2023-09-18T08:05:26;21.10;1.00
34135;DHT22;20410;55.578;12.968;2023-09-18T08:07:54;21.10;1.00
34135;DHT22;20410;55.578;12.968;2023-09-18T08:10:23;21.20;1.00
34135;DHT22;20410;55.578;12.968;2023-09-18T08:12:48;21.30;1.00
34135;DHT22;20410;55.578;12.968;2023-09-18T08:15:16;21.30;1.00
34135;DHT22;20410;55.578;12.968;2023-09-18T08:17:42;21.30;1.00
34135;DHT22;20410;55.578;12.968;2023-09-18T08:20:09;21.40;1.00
34135;DHT22;20410;55.578;12.968;2023-09-18T08:22:39;21.50;1.00
34135;DHT22;20410;55.578;12.968;2023-09-18T08:25:06;21.60;1.00
34135;DHT22;20410;55.578;12.968;2023-09-18T08:27:38;21.70;1.00
34135;DHT22;20410;55.578;12.968;2023-09-18T08:30:10;21.80;1.00
34135;DHT22;20410;55.578;12.968;2023-09-18T08:32:37;21.90;1.00
34135;DHT22;20410;55.578;12.968;2023-09-18T08:35:04;22.00;1.00
34135;DHT22;20410;55.578;12.968;2023-09-18T08:37:29;22.00;1.00
34135;DHT22;20410;55.578;12.968;2023-09-18T08:39:55;22.10;1.00
34135;DHT22;20410;55.578;12.968;2023-09-18T08:42:21;22.10;1.00
34135;DHT22;20410;55.578;12.968;2023-09-18T08:44:51;22.10;1.00
34135;DHT22;20410;55.578;12.968;2023-09-18T08:47:18;22.10;1.00
34135;DHT22;20410;55.578;12.968;2023-09-18T08:49:46;22.20;1.00
34135;DHT22;20410;55.578;12.968;2023-09-18T08:52:15;22.20;1.00
34135;DHT22;20410;55.578;12.968;2023-09-18T08:54:42;22.20;1.00
34135;DHT22;20410;55.578;12.968;2023-09-18T08:57:09;22.20;1.00
34135;DHT22;20410;55.578;12.968;2023-09-18T08:59:35;22.40;1.00
34135;DHT22;20410;55.578;12.968;2023-09-18T09:02:02;22.60;1.00
34135;DHT22;20410;55.578;12.968;2023-09-18T09:04:28;22.80;1.00
34135;DHT22;20410;55.578;12.968;2023-09-18T09:06:53;22.80;1.00
34135;DHT22;20410;55.578;12.968;2023-09-18T09:09:23;22.70;1.00
34135;DHT22;20410;55.578;12.968;2023-09-18T09:11:50;22.70;1.00
34135;DHT22;20410;55.578;12.968;2023-09-18T09:14:16;22.70;1.00
34135;DHT22;20410;55.578;12.968;2023-09-18T09:16:48;22.90;1.00
34135;DHT22;20410;55.578;12.968;2023-09-18T09:19:15;22.90;1.00
34135;DHT22;20410;55.578;12.968;2023-09-18T09:21:42;23.00;1.00
34135;DHT22;20410;55.578;12.968;2023-09-18T09:24:09;23.00;1.00
34135;DHT22;20410;55.578;12.968;2023-09-18T09:26:40;23.10;1.00
34135;DHT22;20410;55.578;12.968;2023-09-18T09:29:19;23.20;1.00
34135;DHT22;20410;55.578;12.968;2023-09-18T09:31:45;23.10;1.00
34135;DHT22;20410;55.578;12.968;2023-09-18T09:34:12;23.10;1.00
34135;DHT22;20410;55.578;12.968;2023-09-18T09:36:54;23.20;1.00
34135;DHT22;20410;55.578;12.968;2023-09-18T09:39:20;23.30;1.00
34135;DHT22;20410;55.578;12.968;2023-09-18T09:41:47;23.30;1.00
34135;DHT22;20410;55.578;12.968;2023-09-18T09:44:14;23.20;1.00
34135;DHT22;20410;55.578;12.968;2023-09-18T09:46:49;23.20;1.00
34135;DHT22;20410;55.578;12.968;2023-09-18T09:49:16;23.30;1.00
34135;DHT22;20410;55.578;12.968;2023-09-18T09:51:43;23.40;1.00
34135;DHT22;20410;55.578;12.968;2023-09-18T09:54:09;23.60;1.00
34135;DHT22;20410;55.578;12.968;2023-09-18T09:56:41;23.70;1.00
34135;DHT22;20410;55.578;12.968;2023-09-18T09:59:07;23.90;1.00
34135;DHT22;20410;55.578;12.968;2023-09-18T10:01:34;24.10;1.00
34135;DHT22;20410;55.578;12.968;2023-09-18T10:04:19;24.20;1.00
34135;DHT22;20410;55.578;12.968;2023-09-18T10:06:52;24.40;1.00
34135;DHT22;20410;55.578;12.968;2023-09-18T10:09:22;24.50;1.00
34135;DHT22;20410;55.578;12.968;2023-09-18T10:11:52;24.60;1.00
34135;DHT22;20410;55.578;12.968;2023-09-18T10:14:20;24.50;1.00
34135;DHT22;20410;55.578;12.968;2023-09-18T10:16:53;24.30;1.00
34135;DHT22;20410;55.578;12.968;2023-09-18T10:22:08;24.10;1.00
34135;DHT22;20410;55.578;12.968;2023-09-18T10:24:40;24.20;1.00
34135;DHT22;20410;55.578;12.968;2023-09-18T10:27:12;24.30;1.00
34135;DHT22;20410;55.578;12.968;2023-09-18T10:29:41;24.40;1.00
34135;DHT22;20410;55.578;12.968;2023-09-18T10:32:08;24.50;1.00
34135;DHT22;20410;55.578;12.968;2023-09-18T10:34:34;24.60;1.00
34135;DHT22;20410;55.578;12.968;2023-09-18T10:37:01;24.60;1.00
34135;DHT22;20410;55.578;12.968;2023-09-18T10:39:31;24.80;1.00
34135;DHT22;20410;55.578;12.968;2023-09-18T10:42:01;24.90;1.00
34135;DHT22;20410;55.578;12.968;2023-09-18T10:44:28;24.90;1.00
34135;DHT22;20410;55.578;12.968;2023-09-18T10:46:54;24.70;1.00
34135;DHT22;20410;55.578;12.968;2023-09-18T10:49:21;24.90;1.00
34135;DHT22;20410;55.578;12.968;2023-09-18T10:51:47;24.90;1.00
34135;DHT22;20410;55.578;12.968;2023-09-18T10:54:20;24.90;1.00
34135;DHT22;20410;55.578;12.968;2023-09-18T10:56:47;24.90;1.00
34135;DHT22;20410;55.578;12.968;2023-09-18T10:59:14;25.00;1.00
34135;DHT22;20410;55.578;12.968;2023-09-18T11:01:40;25.10;1.00
34135;DHT22;20410;55.578;12.968;2023-09-18T11:04:08;25.10;1.00
34135;DHT22;20410;55.578;12.968;2023-09-18T11:09:26;25.00;1.00
34135;DHT22;20410;55.578;12.968;2023-09-18T11:11:56;25.00;1.00
34135;DHT22;20410;55.578;12.968;2023-09-18T11:17:37;25.10;1.00
34135;DHT22;20410;55.578;12.968;2023-09-18T11:23:18;25.30;1.00
34135;DHT22;20410;55.578;12.968;2023-09-18T11:25:44;25.40;1.00
34135;DHT22;20410;55.578;12.968;2023-09-18T11:28:24;25.50;1.00
34135;DHT22;20410;55.578;12.968;2023-09-18T11:30:55;25.40;1.00
34135;DHT22;20410;55.578;12.968;2023-09-18T11:33:36;25.20;1.00
34135;DHT22;20410;55.578;12.968;2023-09-18T11:36:28;25.10;1.00
34135;DHT22;20410;55.578;12.968;2023-09-18T11:38:57;25.10;1.00
34135;DHT22;20410;55.578;12.968;2023-09-18T11:41:31;25.10;1.00
34135;DHT22;20410;55.578;12.968;2023-09-18T11:46:51;25.20;1.00
34135;DHT22;20410;55.578;12.968;2023-09-18T11:49:24;25.10;1.00
34135;DHT22;20410;55.578;12.968;2023-09-18T11:51:54;24.90;1.00
34135;DHT22;20410;55.578;12.968;2023-09-18T11:54:20;24.90;1.00
34135;DHT22;20410;55.578;12.968;2023-09-18T11:56:49;24.90;1.00
34135;DHT22;20410;55.578;12.968;2023-09-18T11:59:15;24.90;1.00
34135;DHT22;20410;55.578;12.968;2023-09-18T12:01:41;24.90;1.00
34135;DHT22;20410;55.578;12.968;2023-09-18T12:04:06;24.90;1.00
34135;DHT22;20410;55.578;12.968;2023-09-18T12:06:39;24.90;1.00
34135;DHT22;20410;55.578;12.968;2023-09-18T12:09:06;24.90;1.00
34135;DHT22;20410;55.578;12.968;2023-09-18T12:11:35;24.80;1.00
34135;DHT22;20410;55.578;12.968;2023-09-18T12:14:04;24.80;1.00
34135;DHT22;20410;55.578;12.968;2023-09-18T12:16:31;24.80;1.00
34135;DHT22;20410;55.578;12.968;2023-09-18T12:18:56;24.60;1.00
34135;DHT22;20410;55.578;12.968;2023-09-18T12:21:23;24.50;1.00
34135;DHT22;20410;55.578;12.968;2023-09-18T12:23:48;24.50;1.00
34135;DHT22;20410;55.578;12.968;2023-09-18T12:26:15;24.50;1.00
34135;DHT22;20410;55.578;12.968;2023-09-18T12:28:45;24.50;1.00
34135;DHT22;20410;55.578;12.968;2023-09-18T12:31:11;24.50;1.00
34135;DHT22;20410;55.578;12.968;2023-09-18T12:33:38;24.60;1.00
34135;DHT22;20410;55.578;12.968;2023-09-18T12:36:05;24.60;1.00
34135;DHT22;20410;55.578;12.968;2023-09-18T12:38:32;24.70;1.00
34135;DHT22;20410;55.578;12.968;2023-09-18T12:41:01;24.70;1.00
34135;DHT22;20410;55.578;12.968;2023-09-18T12:43:40;24.60;1.00
34135;DHT22;20410;55.578;12.968;2023-09-18T12:46:10;24.60;1.00
34135;DHT22;20410;55.578;12.968;2023-09-18T12:48:39;24.60;1.00
34135;DHT22;20410;55.578;12.968;2023-09-18T12:51:11;24.70;1.00
34135;DHT22;20410;55.578;12.968;2023-09-18T12:53:37;24.80;1.00
34135;DHT22;20410;55.578;12.968;2023-09-18T12:56:11;24.90;1.00
34135;DHT22;20410;55.578;12.968;2023-09-18T12:58:43;24.90;1.00
34135;DHT22;20410;55.578;12.968;2023-09-18T13:01:10;24.90;1.00
34135;DHT22;20410;55.578;12.968;2023-09-18T13:03:44;24.80;1.00
34135;DHT22;20410;55.578;12.968;2023-09-18T13:06:18;24.80;1.00
34135;DHT22;20410;55.578;12.968;2023-09-18T13:08:44;24.90;1.00
34135;DHT22;20410;55.578;12.968;2023-09-18T13:11:10;25.10;1.00
34135;DHT22;20410;55.578;12.968;2023-09-18T13:13:40;25.10;1.00
34135;DHT22;20410;55.578;12.968;2023-09-18T13:16:07;25.20;1.00
34135;DHT22;20410;55.578;12.968;2023-09-18T13:18:35;25.20;1.00
34135;DHT22;20410;55.578;12.968;2023-09-18T13:21:09;25.30;1.00
34135;DHT22;20410;55.578;12.968;2023-09-18T13:23:35;25.30;1.00
34135;DHT22;20410;55.578;12.968;2023-09-18T13:26:02;25.30;1.00
34135;DHT22;20410;55.578;12.968;2023-09-18T13:28:28;25.30;1.00
34135;DHT22;20410;55.578;12.968;2023-09-18T13:30:56;25.30;1.00
34135;DHT22;20410;55.578;12.968;2023-09-18T13:33:22;25.20;1.00
34135;DHT22;20410;55.578;12.968;2023-09-18T13:35:49;25.20;1.00
34135;DHT22;20410;55.578;12.968;2023-09-18T13:38:15;25.20;1.00
34135;DHT22;20410;55.578;12.968;2023-09-18T13:40:41;25.20;1.00
34135;DHT22;20410;55.578;12.968;2023-09-18T13:43:11;25.20;1.00
34135;DHT22;20410;55.578;12.968;2023-09-18T13:45:37;25.20;1.00
34135;DHT22;20410;55.578;12.968;2023-09-18T13:48:04;25.20;1.00
34135;DHT22;20410;55.578;12.968;2023-09-18T13:50:31;25.20;1.00
34135;DHT22;20410;55.578;12.968;2023-09-18T13:52:57;25.20;1.00
34135;DHT22;20410;55.578;12.968;2023-09-18T13:55:24;25.20;1.00
34135;DHT22;20410;55.578;12.968;2023-09-18T13:57:50;25.20;1.00
34135;DHT22;20410;55.578;12.968;2023-09-18T14:00:16;25.10;1.00
34135;DHT22;20410;55.578;12.968;2023-09-18T14:02:42;25.10;1.00
34135;DHT22;20410;55.578;12.968;2023-09-18T14:05:08;25.10;1.00
34135;DHT22;20410;55.578;12.968;2023-09-18T14:07:35;25.10;1.00
34135;DHT22;20410;55.578;12.968;2023-09-18T14:10:01;25.00;1.00
34135;DHT22;20410;55.578;12.968;2023-09-18T14:12:29;25.00;1.00
34135;DHT22;20410;55.578;12.968;2023-09-18T14:14:56;25.00;1.00
34135;DHT22;20410;55.578;12.968;2023-09-18T14:17:21;24.90;1.00
34135;DHT22;20410;55.578;12.968;2023-09-18T14:19:47;24.90;1.00
34135;DHT22;20410;55.578;12.968;2023-09-18T14:22:13;24.70;1.00
34135;DHT22;20410;55.578;12.968;2023-09-18T14:24:39;24.60;1.00
34135;DHT22;20410;55.578;12.968;2023-09-18T14:27:06;24.50;1.00
34135;DHT22;20410;55.578;12.968;2023-09-18T14:29:33;24.40;1.00
34135;DHT22;20410;55.578;12.968;2023-09-18T14:32:01;24.30;1.00
34135;DHT22;20410;55.578;12.968;2023-09-18T14:34:28;24.20;1.00
34135;DHT22;20410;55.578;12.968;2023-09-18T14:36:55;24.10;1.00
34135;DHT22;20410;55.578;12.968;2023-09-18T14:39:21;24.10;1.00
34135;DHT22;20410;55.578;12.968;2023-09-18T14:41:47;24.00;1.00
34135;DHT22;20410;55.578;12.968;2023-09-18T14:44:13;23.90;1.00
34135;DHT22;20410;55.578;12.968;2023-09-18T14:46:38;23.90;1.00
34135;DHT22;20410;55.578;12.968;2023-09-18T14:49:05;23.80;1.00
34135;DHT22;20410;55.578;12.968;2023-09-18T14:51:31;23.80;1.00
34135;DHT22;20410;55.578;12.968;2023-09-18T14:53:58;23.80;1.00
34135;DHT22;20410;55.578;12.968;2023-09-18T14:56:24;23.80;1.00
34135;DHT22;20410;55.578;12.968;2023-09-18T14:58:49;23.70;1.00
34135;DHT22;20410;55.578;12.968;2023-09-18T15:01:17;23.70;1.00
34135;DHT22;20410;55.578;12.968;2023-09-18T15:03:43;23.60;1.00
34135;DHT22;20410;55.578;12.968;2023-09-18T15:06:10;23.50;1.00
34135;DHT22;20410;55.578;12.968;2023-09-18T15:08:36;23.20;1.00
34135;DHT22;20410;55.578;12.968;2023-09-18T15:11:02;23.00;1.00
34135;DHT22;20410;55.578;12.968;2023-09-18T15:13:29;22.80;1.00
34135;DHT22;20410;55.578;12.968;2023-09-18T15:15:55;22.60;3.00
34135;DHT22;20410;55.578;12.968;2023-09-18T15:18:21;22.30;24.40
34135;DHT22;20410;55.578;12.968;2023-09-18T15:20:47;22.20;39.70
34135;DHT22;20410;55.578;12.968;2023-09-18T15:23:13;22.10;59.30
34135;DHT22;20410;55.578;12.968;2023-09-18T15:25:39;21.90;86.80
34135;DHT22;20410;55.578;12.968;2023-09-18T15:28:06;21.80;91.30
34135;DHT22;20410;55.578;12.968;2023-09-18T15:30:32;21.70;99.90
34135;DHT22;20410;55.578;12.968;2023-09-18T15:32:58;21.70;99.90
34135;DHT22;20410;55.578;12.968;2023-09-18T15:35:25;21.70;99.90
34135;DHT22;20410;55.578;12.968;2023-09-18T15:38:09;21.60;99.90
34135;DHT22;20410;55.578;12.968;2023-09-18T15:40:35;21.60;99.90
34135;DHT22;20410;55.578;12.968;2023-09-18T15:43:00;21.50;99.90